sensor_id;sensor_type;location;lat;lon;timestamp;pressure;altitude;pressure_sealevel;temperature;humidity
59789;BME280;47353;51.614;5.530;2023-05-07T00:01:31;101519.25;;;13.86;100.00
59789;BME280;47353;51.614;5.530;2023-05-07T00:03:56;101513.09;;;13.89;100.00
59789;BME280;47353;51.614;5.530;2023-05-07T00:06:22;101516.72;;;13.89;100.00
59789;BME280;47353;51.614;5.530;2023-05-07T00:08:47;101514.53;;;13.86;100.00
59789;BME280;47353;51.614;5.530;2023-05-07T00:11:13;101520.31;;;13.90;100.00
59789;BME280;47353;51.614;5.530;2023-05-07T00:13:38;101513.94;;;13.89;100.00
59789;BME280;47353;51.614;5.530;2023-05-07T00:16:04;101508.09;;;13.91;100.00
59789;BME280;47353;51.614;5.530;2023-05-07T00:18:30;101513.38;;;13.92;100.00
59789;BME280;47353;51.614;5.530;2023-05-07T00:20:55;101508.09;;;13.91;100.00
59789;BME280;47353;51.614;5.530;2023-05-07T00:23:21;101508.91;;;13.91;100.00
59789;BME280;47353;51.614;5.530;2023-05-07T00:25:47;101505.59;;;13.89;100.00
59789;BME280;47353;51.614;5.530;2023-05-07T00:28:12;101506.69;;;13.88;100.00
59789;BME280;47353;51.614;5.530;2023-05-07T00:30:37;101498.34;;;13.88;100.00
59789;BME280;47353;51.614;5.530;2023-05-07T00:33:03;101496.69;;;13.87;100.00
59789;BME280;47353;51.614;5.530;2023-05-07T00:35:29;101491.13;;;13.82;100.00
59789;BME280;47353;51.614;5.530;2023-05-07T00:37:55;101496.41;;;13.84;100.00
59789;BME280;47353;51.614;5.530;2023-05-07T00:40:20;101497.53;;;13.83;100.00
59789;BME280;47353;51.614;5.530;2023-05-07T00:42:46;101496.97;;;13.81;100.00
59789;BME280;47353;51.614;5.530;2023-05-07T00:45:13;101492.81;;;13.78;100.00
59789;BME280;47353;51.614;5.530;2023-05-07T00:47:39;101485.59;;;13.77;100.00
59789;BME280;47353;51.614;5.530;2023-05-07T00:50:06;101486.69;;;13.76;100.00
59789;BME280;47353;51.614;5.530;2023-05-07T00:52:32;101487.28;;;13.73;100.00
59789;BME280;47353;51.614;5.530;2023-05-07T00:54:59;101480.34;;;13.71;100.00
59789;BME280;47353;51.614;5.530;2023-05-07T00:57:27;101482.56;;;13.69;100.00
59789;BME280;47353;51.614;5.530;2023-05-07T00:59:53;101487.56;;;13.72;100.00
59789;BME280;47353;51.614;5.530;2023-05-07T01:02:18;101483.69;;;13.68;100.00
59789;BME280;47353;51.614;5.530;2023-05-07T01:04:44;101487.84;;;13.70;100.00
59789;BME280;47353;51.614;5.530;2023-05-07T01:07:09;101485.06;;;13.70;100.00
59789;BME280;47353;51.614;5.530;2023-05-07T01:09:35;101482.56;;;13.69;100.00
59789;BME280;47353;51.614;5.530;2023-05-07T01:12:02;101482.28;;;13.70;100.00
59789;BME280;47353;51.614;5.530;2023-05-07T01:14:28;101473.06;;;13.70;100.00
59789;BME280;47353;51.614;5.530;2023-05-07T01:16:54;101477.56;;;13.71;100.00
59789;BME280;47353;51.614;5.530;2023-05-07T01:19:20;101478.38;;;13.71;100.00
59789;BME280;47353;51.614;5.530;2023-05-07T01:21:47;101480.06;;;13.72;100.00
59789;BME280;47353;51.614;5.530;2023-05-07T01:24:13;101478.66;;;13.70;100.00
59789;BME280;47353;51.614;5.530;2023-05-07T01:26:39;101478.91;;;13.73;100.00
59789;BME280;47353;51.614;5.530;2023-05-07T01:29:05;101475.56;;;13.71;100.00
59789;BME280;47353;51.614;5.530;2023-05-07T01:31:31;101476.13;;;13.73;100.00
59789;BME280;47353;51.614;5.530;2023-05-07T01:33:57;101474.47;;;13.72;100.00
59789;BME280;47353;51.614;5.530;2023-05-07T01:36:25;101468.91;;;13.72;100.00
59789;BME280;47353;51.614;5.530;2023-05-07T01:38:52;101467.22;;;13.76;100.00
59789;BME280;47353;51.614;5.530;2023-05-07T01:41:19;101451.38;;;13.72;100.00
59789;BME280;47353;51.614;5.530;2023-05-07T01:43:45;101459.16;;;13.75;100.00
59789;BME280;47353;51.614;5.530;2023-05-07T01:46:12;101444.44;;;13.69;100.00
59789;BME280;47353;51.614;5.530;2023-05-07T01:48:38;101445.25;;;13.75;100.00
59789;BME280;47353;51.614;5.530;2023-05-07T01:51:05;101448.31;;;13.78;100.00
59789;BME280;47353;51.614;5.530;2023-05-07T01:53:40;101453.88;;;13.78;100.00
59789;BME280;47353;51.614;5.530;2023-05-07T01:56:06;101448.03;;;13.75;100.00
59789;BME280;47353;51.614;5.530;2023-05-07T01:58:32;101453.31;;;13.76;100.00
59789;BME280;47353;51.614;5.530;2023-05-07T02:00:57;101446.91;;;13.76;100.00
59789;BME280;47353;51.614;5.530;2023-05-07T02:03:22;101451.09;;;13.73;100.00
59789;BME280;47353;51.614;5.530;2023-05-07T02:05:48;101448.03;;;13.70;100.00
59789;BME280;47353;51.614;5.530;2023-05-07T02:08:13;101453.59;;;13.70;100.00
59789;BME280;47353;51.614;5.530;2023-05-07T02:10:39;101452.22;;;13.67;100.00
59789;BME280;47353;51.614;5.530;2023-05-07T02:13:04;101451.66;;;13.65;100.00
59789;BME280;47353;51.614;5.530;2023-05-07T02:15:29;101438.63;;;13.56;100.00
59789;BME280;47353;51.614;5.530;2023-05-07T02:18:03;101448.94;;;13.60;100.00
59789;BME280;47353;51.614;5.530;2023-05-07T02:20:28;101441.69;;;13.59;100.00
59789;BME280;47353;51.614;5.530;2023-05-07T02:22:54;101448.09;;;13.60;100.00
59789;BME280;47353;51.614;5.530;2023-05-07T02:25:19;101450.88;;;13.60;100.00
59789;BME280;47353;51.614;5.530;2023-05-07T02:27:45;101442.25;;;13.61;100.00
59789;BME280;47353;51.614;5.530;2023-05-07T02:30:10;101451.72;;;13.60;100.00
59789;BME280;47353;51.614;5.530;2023-05-07T02:32:36;101457.81;;;13.62;100.00
59789;BME280;47353;51.614;5.530;2023-05-07T02:35:01;101450.88;;;13.60;100.00
59789;BME280;47353;51.614;5.530;2023-05-07T02:37:27;101457.56;;;13.59;100.00
59789;BME280;47353;51.614;5.530;2023-05-07T02:39:52;101454.22;;;13.57;100.00
59789;BME280;47353;51.614;5.530;2023-05-07T02:42:18;101449.75;;;13.56;100.00
59789;BME280;47353;51.614;5.530;2023-05-07T02:44:43;101454.78;;;13.54;100.00
59789;BME280;47353;51.614;5.530;2023-05-07T02:47:08;101450.59;;;13.51;100.00
59789;BME280;47353;51.614;5.530;2023-05-07T02:49:34;101455.06;;;13.52;100.00
59789;BME280;47353;51.614;5.530;2023-05-07T02:52:00;101461.72;;;13.51;100.00
59789;BME280;47353;51.614;5.530;2023-05-07T02:54:25;101460.06;;;13.50;100.00
59789;BME280;47353;51.614;5.530;2023-05-07T02:56:51;101455.63;;;13.49;100.00
59789;BME280;47353;51.614;5.530;2023-05-07T02:59:16;101451.44;;;13.52;100.00
59789;BME280;47353;51.614;5.530;2023-05-07T03:01:41;101456.72;;;13.48;100.00
59789;BME280;47353;51.614;5.530;2023-05-07T03:04:09;101454.78;;;13.49;100.00
59789;BME280;47353;51.614;5.530;2023-05-07T03:06:35;101456.72;;;13.48;100.00
59789;BME280;47353;51.614;5.530;2023-05-07T03:09:01;101454.78;;;13.49;100.00
59789;BME280;47353;51.614;5.530;2023-05-07T03:11:26;101460.91;;;13.46;100.00
59789;BME280;47353;51.614;5.530;2023-05-07T03:13:52;101455.34;;;13.46;100.00
59789;BME280;47353;51.614;5.530;2023-05-07T03:16:17;101454.50;;;13.45;100.00
59789;BME280;47353;51.614;5.530;2023-05-07T03:18:43;101455.63;;;13.44;100.00
59789;BME280;47353;51.614;5.530;2023-05-07T03:21:08;101455.34;;;13.46;100.00
59789;BME280;47353;51.614;5.530;2023-05-07T03:23:33;101450.91;;;13.45;100.00
59789;BME280;47353;51.614;5.530;2023-05-07T03:25:59;101453.69;;;13.45;100.00
59789;BME280;47353;51.614;5.530;2023-05-07T03:28:24;101449.78;;;13.46;100.00
59789;BME280;47353;51.614;5.530;2023-05-07T03:30:50;101448.69;;;13.42;100.00
59789;BME280;47353;51.614;5.530;2023-05-07T03:33:15;101448.97;;;13.40;100.00
59789;BME280;47353;51.614;5.530;2023-05-07T03:35:41;101454.53;;;13.40;100.00
59789;BME280;47353;51.614;5.530;2023-05-07T03:38:07;101440.91;;;13.38;100.00
59789;BME280;47353;51.614;5.530;2023-05-07T03:40:32;101441.72;;;13.39;100.00
59789;BME280;47353;51.614;5.530;2023-05-07T03:42:59;101438.66;;;13.40;100.00
59789;BME280;47353;51.614;5.530;2023-05-07T03:45:25;101437.28;;;13.38;100.00
59789;BME280;47353;51.614;5.530;2023-05-07T03:47:50;101439.78;;;13.39;100.00
59789;BME280;47353;51.614;5.530;2023-05-07T03:50:16;101435.88;;;13.40;100.00
59789;BME280;47353;51.614;5.530;2023-05-07T03:52:41;101442.00;;;13.37;100.00
59789;BME280;47353;51.614;5.530;2023-05-07T03:55:07;101441.47;;;13.35;100.00
59789;BME280;47353;51.614;5.530;2023-05-07T03:57:33;101443.97;;;13.37;100.00
59789;BME280;47353;51.614;5.530;2023-05-07T03:59:58;101453.41;;;13.36;100.00
59789;BME280;47353;51.614;5.530;2023-05-07T04:02:23;101452.03;;;13.38;100.00
59789;BME280;47353;51.614;5.530;2023-05-07T04:04:49;101455.09;;;13.37;100.00
59789;BME280;47353;51.614;5.530;2023-05-07T04:07:15;101454.81;;;13.38;100.00
59789;BME280;47353;51.614;5.530;2023-05-07T04:09:40;101465.38;;;13.36;100.00
59789;BME280;47353;51.614;5.530;2023-05-07T04:12:06;101466.22;;;13.37;100.00
59789;BME280;47353;51.614;5.530;2023-05-07T04:14:31;101463.97;;;13.39;100.00
59789;BME280;47353;51.614;5.530;2023-05-07T04:17:00;101472.31;;;13.39;100.00
59789;BME280;47353;51.614;5.530;2023-05-07T04:19:25;101474.81;;;13.40;100.00
59789;BME280;47353;51.614;5.530;2023-05-07T04:21:51;101479.81;;;13.43;100.00
59789;BME280;47353;51.614;5.530;2023-05-07T04:24:16;101475.38;;;13.43;100.00
59789;BME280;47353;51.614;5.530;2023-05-07T04:26:42;101464.81;;;13.45;100.00
59789;BME280;47353;51.614;5.530;2023-05-07T04:29:07;101470.38;;;13.45;100.00
59789;BME280;47353;51.614;5.530;2023-05-07T04:31:33;101468.41;;;13.45;100.00
59789;BME280;47353;51.614;5.530;2023-05-07T04:33:58;101470.91;;;13.47;100.00
59789;BME280;47353;51.614;5.530;2023-05-07T04:36:23;101466.75;;;13.49;100.00
59789;BME280;47353;51.614;5.530;2023-05-07T04:38:53;101464.25;;;13.48;100.00
59789;BME280;47353;51.614;5.530;2023-05-07T04:41:18;101470.06;;;13.51;100.00
59789;BME280;47353;51.614;5.530;2023-05-07T04:43:44;101472.03;;;13.51;100.00
59789;BME280;47353;51.614;5.530;2023-05-07T04:46:09;101471.75;;;13.52;100.00
59789;BME280;47353;51.614;5.530;2023-05-07T04:48:35;101476.47;;;13.52;100.00
59789;BME280;47353;51.614;5.530;2023-05-07T04:51:00;101473.41;;;13.53;100.00
59789;BME280;47353;51.614;5.530;2023-05-07T04:53:26;101481.47;;;13.55;100.00
59789;BME280;47353;51.614;5.530;2023-05-07T04:55:55;101474.25;;;13.59;100.00
59789;BME280;47353;51.614;5.530;2023-05-07T04:58:21;101481.19;;;13.61;100.00
59789;BME280;47353;51.614;5.530;2023-05-07T05:00:46;101482.28;;;13.65;100.00
59789;BME280;47353;51.614;5.530;2023-05-07T05:03:12;101477.84;;;13.64;100.00
59789;BME280;47353;51.614;5.530;2023-05-07T05:05:37;101482.28;;;13.70;100.00
59789;BME280;47353;51.614;5.530;2023-05-07T05:08:03;101485.91;;;13.71;100.00
59789;BME280;47353;51.614;5.530;2023-05-07T05:10:28;101485.59;;;13.77;100.00
59789;BME280;47353;51.614;5.530;2023-05-07T05:12:54;101488.63;;;13.81;100.00
59789;BME280;47353;51.614;5.530;2023-05-07T05:15:19;101492.25;;;13.86;100.00
59789;BME280;47353;51.614;5.530;2023-05-07T05:17:44;101489.44;;;13.91;100.00
59789;BME280;47353;51.614;5.530;2023-05-07T05:20:10;101495.00;;;13.96;100.00
59789;BME280;47353;51.614;5.530;2023-05-07T05:22:37;101493.03;;;14.02;100.00
59789;BME280;47353;51.614;5.530;2023-05-07T05:25:02;101494.13;;;14.06;100.00
59789;BME280;47353;51.614;5.530;2023-05-07T05:27:28;101500.22;;;14.13;100.00
59789;BME280;47353;51.614;5.530;2023-05-07T05:29:54;101496.31;;;14.24;100.00
59789;BME280;47353;51.614;5.530;2023-05-07T05:32:19;101507.41;;;14.34;100.00
59789;BME280;47353;51.614;5.530;2023-05-07T05:34:45;101511.53;;;14.41;100.00
59789;BME280;47353;51.614;5.530;2023-05-07T05:37:10;101519.03;;;14.51;100.00
59789;BME280;47353;51.614;5.530;2023-05-07T05:39:36;101512.88;;;14.54;100.00
59789;BME280;47353;51.614;5.530;2023-05-07T05:42:01;101512.56;;;14.60;100.00
59789;BME280;47353;51.614;5.530;2023-05-07T05:44:27;101526.75;;;14.64;100.00
59789;BME280;47353;51.614;5.530;2023-05-07T05:46:52;101524.25;;;14.62;100.00
59789;BME280;47353;51.614;5.530;2023-05-07T05:49:20;101525.66;;;14.60;100.00
59789;BME280;47353;51.614;5.530;2023-05-07T05:51:46;101525.63;;;14.65;100.00
59789;BME280;47353;51.614;5.530;2023-05-07T05:54:11;101524.78;;;14.69;100.00
59789;BME280;47353;51.614;5.530;2023-05-07T05:56:37;101521.72;;;14.66;100.00
59789;BME280;47353;51.614;5.530;2023-05-07T05:59:02;101521.69;;;14.71;100.00
59789;BME280;47353;51.614;5.530;2023-05-07T06:01:28;101518.03;;;14.75;100.00
59789;BME280;47353;51.614;5.530;2023-05-07T06:03:53;101516.88;;;14.81;100.00
59789;BME280;47353;51.614;5.530;2023-05-07T06:06:18;101514.00;;;14.91;100.00
59789;BME280;47353;51.614;5.530;2023-05-07T06:08:44;101519.00;;;14.94;100.00
59789;BME280;47353;51.614;5.530;2023-05-07T06:11:09;101511.50;;;14.95;100.00
59789;BME280;47353;51.614;5.530;2023-05-07T06:13:35;101515.88;;;15.06;100.00
59789;BME280;47353;51.614;5.530;2023-05-07T06:16:00;101525.56;;;15.14;100.00
59789;BME280;47353;51.614;5.530;2023-05-07T06:18:26;101525.28;;;15.15;100.00
59789;BME280;47353;51.614;5.530;2023-05-07T06:20:52;101530.81;;;15.20;100.00
59789;BME280;47353;51.614;5.530;2023-05-07T06:23:17;101524.66;;;15.23;100.00
59789;BME280;47353;51.614;5.530;2023-05-07T06:25:50;101533.00;;;15.28;100.00
59789;BME280;47353;51.614;5.530;2023-05-07T06:28:16;101529.81;;;15.45;100.00
59789;BME280;47353;51.614;5.530;2023-05-07T06:30:41;101529.19;;;15.53;100.00
59789;BME280;47353;51.614;5.530;2023-05-07T06:33:07;101534.63;;;15.68;100.00
59789;BME280;47353;51.614;5.530;2023-05-07T06:35:32;101526.50;;;15.71;100.00
59789;BME280;47353;51.614;5.530;2023-05-07T06:37:57;101525.84;;;15.79;100.00
59789;BME280;47353;51.614;5.530;2023-05-07T06:40:23;101533.81;;;15.91;100.00
59789;BME280;47353;51.614;5.530;2023-05-07T06:42:48;101531.75;;;16.01;100.00
59789;BME280;47353;51.614;5.530;2023-05-07T06:45:14;101541.50;;;16.04;100.00
59789;BME280;47353;51.614;5.530;2023-05-07T06:47:39;101537.53;;;16.10;100.00
59789;BME280;47353;51.614;5.530;2023-05-07T06:50:05;101544.63;;;16.21;100.00
59789;BME280;47353;51.614;5.530;2023-05-07T06:52:31;101537.41;;;16.20;100.00
59789;BME280;47353;51.614;5.530;2023-05-07T06:54:56;101541.50;;;16.27;100.00
59789;BME280;47353;51.614;5.530;2023-05-07T06:57:21;101544.56;;;16.26;100.00
59789;BME280;47353;51.614;5.530;2023-05-07T06:59:47;101531.16;;;16.28;100.00
59789;BME280;47353;51.614;5.530;2023-05-07T07:02:12;101548.50;;;16.25;100.00
59789;BME280;47353;51.614;5.530;2023-05-07T07:04:38;101544.53;;;16.31;100.00
59789;BME280;47353;51.614;5.530;2023-05-07T07:07:03;101546.97;;;16.37;100.00
59789;BME280;47353;51.614;5.530;2023-05-07T07:09:28;101545.28;;;16.36;100.00
59789;BME280;47353;51.614;5.530;2023-05-07T07:11:54;101552.56;;;16.37;100.00
59789;BME280;47353;51.614;5.530;2023-05-07T07:14:19;101554.25;;;16.33;100.00
59789;BME280;47353;51.614;5.530;2023-05-07T07:16:45;101551.16;;;16.35;100.00
59789;BME280;47353;51.614;5.530;2023-05-07T07:19:12;101548.16;;;16.31;100.00
59789;BME280;47353;51.614;5.530;2023-05-07T07:21:37;101557.94;;;16.29;100.00
59789;BME280;47353;51.614;5.530;2023-05-07T07:24:03;101556.06;;;16.24;100.00
59789;BME280;47353;51.614;5.530;2023-05-07T07:26:28;101554.44;;;16.18;100.00
59789;BME280;47353;51.614;5.530;2023-05-07T07:28:54;101557.88;;;16.10;100.00
59789;BME280;47353;51.614;5.530;2023-05-07T07:31:19;101555.34;;;16.14;100.00
59789;BME280;47353;51.614;5.530;2023-05-07T07:33:44;101556.41;;;16.18;100.00
59789;BME280;47353;51.614;5.530;2023-05-07T07:36:10;101555.28;;;16.19;100.00
59789;BME280;47353;51.614;5.530;2023-05-07T07:38:36;101569.78;;;16.21;100.00
59789;BME280;47353;51.614;5.530;2023-05-07T07:41:01;101571.47;;;16.22;100.00
59789;BME280;47353;51.614;5.530;2023-05-07T07:43:27;101570.31;;;16.23;100.00
59789;BME280;47353;51.614;5.530;2023-05-07T07:45:52;101575.81;;;16.33;100.00
59789;BME280;47353;51.614;5.530;2023-05-07T07:48:18;101572.84;;;16.48;100.00
59789;BME280;47353;51.614;5.530;2023-05-07T07:50:43;101567.13;;;16.58;100.00
59789;BME280;47353;51.614;5.530;2023-05-07T07:53:09;101560.56;;;16.67;100.00
59789;BME280;47353;51.614;5.530;2023-05-07T07:55:38;101572.84;;;16.90;100.00
59789;BME280;47353;51.614;5.530;2023-05-07T07:58:04;101570.13;;;17.04;100.00
59789;BME280;47353;51.614;5.530;2023-05-07T08:00:30;101570.44;;;17.21;100.00
59789;BME280;47353;51.614;5.530;2023-05-07T08:02:55;101577.94;;;17.44;100.00
59789;BME280;47353;51.614;5.530;2023-05-07T08:05:21;101572.56;;;17.47;96.76
59789;BME280;47353;51.614;5.530;2023-05-07T08:07:47;101579.31;;;17.60;95.30
59789;BME280;47353;51.614;5.530;2023-05-07T08:10:17;101580.34;;;17.82;94.93
59789;BME280;47353;51.614;5.530;2023-05-07T08:12:47;101584.00;;;17.96;93.58
59789;BME280;47353;51.614;5.530;2023-05-07T08:15:12;101587.34;;;18.12;92.43
59789;BME280;47353;51.614;5.530;2023-05-07T08:17:38;101581.38;;;18.46;91.42
59789;BME280;47353;51.614;5.530;2023-05-07T08:20:04;101584.78;;;18.70;90.48
59789;BME280;47353;51.614;5.530;2023-05-07T08:22:30;101591.13;;;18.89;88.27
59789;BME280;47353;51.614;5.530;2023-05-07T08:24:55;101590.56;;;19.00;87.74
59789;BME280;47353;51.614;5.530;2023-05-07T08:27:20;101589.13;;;19.25;87.93
59789;BME280;47353;51.614;5.530;2023-05-07T08:29:46;101594.59;;;19.57;86.29
59789;BME280;47353;51.614;5.530;2023-05-07T08:32:13;101592.06;;;19.77;83.75
59789;BME280;47353;51.614;5.530;2023-05-07T08:34:38;101592.78;;;20.36;81.92
59789;BME280;47353;51.614;5.530;2023-05-07T08:37:04;101590.56;;;21.45;80.81
59789;BME280;47353;51.614;5.530;2023-05-07T08:39:29;101594.59;;;22.33;73.79
59789;BME280;47353;51.614;5.530;2023-05-07T08:41:55;101604.19;;;22.78;68.52
59789;BME280;47353;51.614;5.530;2023-05-07T08:44:22;101598.59;;;22.69;67.72
59789;BME280;47353;51.614;5.530;2023-05-07T08:46:51;101596.06;;;22.76;68.97
59789;BME280;47353;51.614;5.530;2023-05-07T08:49:20;101592.78;;;22.66;67.99
59789;BME280;47353;51.614;5.530;2023-05-07T08:51:45;101591.69;;;22.58;68.70
59789;BME280;47353;51.614;5.530;2023-05-07T08:54:11;101599.63;;;22.94;67.01
59789;BME280;47353;51.614;5.530;2023-05-07T08:56:37;101611.06;;;23.18;65.67
59789;BME280;47353;51.614;5.530;2023-05-07T08:59:05;101605.06;;;22.99;65.26
59789;BME280;47353;51.614;5.530;2023-05-07T09:01:30;101609.66;;;22.83;64.77
59789;BME280;47353;51.614;5.530;2023-05-07T09:03:56;101616.56;;;22.65;64.93
59789;BME280;47353;51.614;5.530;2023-05-07T09:06:21;101602.72;;;22.26;69.61
59789;BME280;47353;51.614;5.530;2023-05-07T09:08:51;101606.16;;;22.48;70.14
59789;BME280;47353;51.614;5.530;2023-05-07T09:11:20;101603.69;;;22.38;67.13
59789;BME280;47353;51.614;5.530;2023-05-07T09:13:46;101599.59;;;22.19;67.05
59789;BME280;47353;51.614;5.530;2023-05-07T09:16:12;101607.94;;;22.07;67.87
59789;BME280;47353;51.614;5.530;2023-05-07T09:18:46;101607.22;;;22.18;68.39
59789;BME280;47353;51.614;5.530;2023-05-07T09:21:17;101599.22;;;22.29;68.53
59789;BME280;47353;51.614;5.530;2023-05-07T09:23:43;101603.91;;;22.25;66.86
59789;BME280;47353;51.614;5.530;2023-05-07T09:26:08;101595.56;;;22.37;66.92
59789;BME280;47353;51.614;5.530;2023-05-07T09:28:44;101598.78;;;22.64;68.52
59789;BME280;47353;51.614;5.530;2023-05-07T09:31:10;101603.31;;;22.57;67.79
59789;BME280;47353;51.614;5.530;2023-05-07T09:33:37;101605.59;;;22.63;66.74
59789;BME280;47353;51.614;5.530;2023-05-07T09:36:06;101607.97;;;22.44;64.17
59789;BME280;47353;51.614;5.530;2023-05-07T09:38:33;101601.44;;;22.15;65.49
59789;BME280;47353;51.614;5.530;2023-05-07T09:41:09;101605.97;;;21.99;67.36
59789;BME280;47353;51.614;5.530;2023-05-07T09:43:36;101603.50;;;21.80;65.89
59789;BME280;47353;51.614;5.530;2023-05-07T09:46:09;101595.69;;;21.69;67.54
59789;BME280;47353;51.614;5.530;2023-05-07T09:48:38;101602.66;;;21.37;68.02
59789;BME280;47353;51.614;5.530;2023-05-07T09:51:32;101603.31;;;21.25;69.81
59789;BME280;47353;51.614;5.530;2023-05-07T09:53:57;101602.00;;;21.48;70.65
59789;BME280;47353;51.614;5.530;2023-05-07T09:56:25;101603.16;;;21.65;70.73
59789;BME280;47353;51.614;5.530;2023-05-07T09:58:54;101589.22;;;21.42;68.43
59789;BME280;47353;51.614;5.530;2023-05-07T10:01:21;101595.88;;;21.38;70.01
59789;BME280;47353;51.614;5.530;2023-05-07T10:03:49;101603.66;;;21.75;71.18
59789;BME280;47353;51.614;5.530;2023-05-07T10:06:15;101608.78;;;21.99;68.86
59789;BME280;47353;51.614;5.530;2023-05-07T10:08:42;101605.16;;;22.44;69.45
59789;BME280;47353;51.614;5.530;2023-05-07T10:11:08;101605.66;;;22.84;69.28
59789;BME280;47353;51.614;5.530;2023-05-07T10:13:35;101610.63;;;23.16;68.38
59789;BME280;47353;51.614;5.530;2023-05-07T10:16:04;101604.38;;;23.31;64.07
59789;BME280;47353;51.614;5.530;2023-05-07T10:18:31;101605.31;;;23.15;62.65
59789;BME280;47353;51.614;5.530;2023-05-07T10:21:08;101613.72;;;23.23;63.63
59789;BME280;47353;51.614;5.530;2023-05-07T10:23:36;101606.88;;;23.53;61.71
59789;BME280;47353;51.614;5.530;2023-05-07T10:26:05;101610.94;;;23.64;60.08
59789;BME280;47353;51.614;5.530;2023-05-07T10:28:36;101607.44;;;24.00;61.21
59789;BME280;47353;51.614;5.530;2023-05-07T10:34:08;101605.00;;;24.67;60.18
59789;BME280;47353;51.614;5.530;2023-05-07T10:36:35;101610.06;;;24.98;57.75
59789;BME280;47353;51.614;5.530;2023-05-07T10:39:03;101609.06;;;25.42;54.50
59789;BME280;47353;51.614;5.530;2023-05-07T10:41:30;101613.72;;;25.74;54.86
59789;BME280;47353;51.614;5.530;2023-05-07T10:43:55;101610.25;;;25.80;56.59
59789;BME280;47353;51.614;5.530;2023-05-07T10:46:22;101612.22;;;25.92;56.08
59789;BME280;47353;51.614;5.530;2023-05-07T10:51:29;101615.41;;;25.90;54.43
59789;BME280;47353;51.614;5.530;2023-05-07T10:56:41;101603.97;;;25.59;53.05
59789;BME280;47353;51.614;5.530;2023-05-07T11:04:20;101610.19;;;25.65;51.54
59789;BME280;47353;51.614;5.530;2023-05-07T11:09:54;101599.84;;;26.12;53.14
59789;BME280;47353;51.614;5.530;2023-05-07T11:15:03;101601.25;;;26.34;49.91
59789;BME280;47353;51.614;5.530;2023-05-07T11:17:30;101600.31;;;26.14;48.20
59789;BME280;47353;51.614;5.530;2023-05-07T11:20:01;101604.69;;;25.84;48.30
59789;BME280;47353;51.614;5.530;2023-05-07T11:25:05;101608.28;;;25.96;47.77
59789;BME280;47353;51.614;5.530;2023-05-07T11:27:32;101613.81;;;26.33;49.20
59789;BME280;47353;51.614;5.530;2023-05-07T11:29:58;101612.44;;;26.42;47.17
59789;BME280;47353;51.614;5.530;2023-05-07T11:32:28;101611.66;;;26.73;46.34
59789;BME280;47353;51.614;5.530;2023-05-07T11:34:55;101609.91;;;26.53;45.64
59789;BME280;47353;51.614;5.530;2023-05-07T11:37:23;101623.72;;;26.54;47.40
59789;BME280;47353;51.614;5.530;2023-05-07T11:39:49;101615.88;;;26.63;45.60
59789;BME280;47353;51.614;5.530;2023-05-07T11:44:52;101614.56;;;26.76;45.79
59789;BME280;47353;51.614;5.530;2023-05-07T11:47:18;101619.50;;;26.95;45.06
59789;BME280;47353;51.614;5.530;2023-05-07T11:49:49;101618.53;;;27.37;44.88
59789;BME280;47353;51.614;5.530;2023-05-07T11:52:16;101616.47;;;27.92;41.72
59789;BME280;47353;51.614;5.530;2023-05-07T11:54:48;101616.56;;;28.37;42.64
59789;BME280;47353;51.614;5.530;2023-05-07T11:57:14;101608.19;;;28.44;41.56
59789;BME280;47353;51.614;5.530;2023-05-07T11:59:40;101620.56;;;28.32;40.51
59789;BME280;47353;51.614;5.530;2023-05-07T12:02:07;101609.84;;;28.26;41.43
59789;BME280;47353;51.614;5.530;2023-05-07T12:04:33;101600.13;;;28.27;41.49
59789;BME280;47353;51.614;5.530;2023-05-07T12:06:58;101610.41;;;28.12;40.01
59789;BME280;47353;51.614;5.530;2023-05-07T12:09:23;101609.13;;;27.71;41.13
59789;BME280;47353;51.614;5.530;2023-05-07T12:11:49;101608.09;;;27.60;41.36
59789;BME280;47353;51.614;5.530;2023-05-07T12:14:16;101601.72;;;27.48;41.60
59789;BME280;47353;51.614;5.530;2023-05-07T12:16:42;101610.06;;;27.41;41.49
59789;BME280;47353;51.614;5.530;2023-05-07T12:19:08;101610.19;;;26.94;42.38
59789;BME280;47353;51.614;5.530;2023-05-07T12:21:37;101610.56;;;26.77;44.35
59789;BME280;47353;51.614;5.530;2023-05-07T12:24:03;101604.91;;;26.50;43.52
59789;BME280;47353;51.614;5.530;2023-05-07T12:26:29;101598.25;;;25.99;42.63
59789;BME280;47353;51.614;5.530;2023-05-07T12:28:54;101606.66;;;25.68;44.86
59789;BME280;47353;51.614;5.530;2023-05-07T12:31:22;101612.88;;;25.46;46.34
59789;BME280;47353;51.614;5.530;2023-05-07T12:33:47;101609.81;;;25.27;46.61
59789;BME280;47353;51.614;5.530;2023-05-07T12:36:13;101620.47;;;24.94;47.69
59789;BME280;47353;51.614;5.530;2023-05-07T12:38:39;101615.81;;;24.65;48.40
59789;BME280;47353;51.614;5.530;2023-05-07T12:41:07;101611.28;;;24.28;48.64
59789;BME280;47353;51.614;5.530;2023-05-07T12:43:33;101609.09;;;24.01;47.97
59789;BME280;47353;51.614;5.530;2023-05-07T12:46:04;101624.22;;;23.64;49.67
59789;BME280;47353;51.614;5.530;2023-05-07T12:48:29;101625.41;;;23.42;50.57
59789;BME280;47353;51.614;5.530;2023-05-07T12:50:57;101632.38;;;23.16;52.16
59789;BME280;47353;51.614;5.530;2023-05-07T12:53:24;101631.19;;;22.96;55.04
59789;BME280;47353;51.614;5.530;2023-05-07T12:55:52;101629.84;;;22.93;55.77
59789;BME280;47353;51.614;5.530;2023-05-07T12:58:21;101632.31;;;22.95;55.25
59789;BME280;47353;51.614;5.530;2023-05-07T13:00:50;101640.00;;;22.94;53.93
59789;BME280;47353;51.614;5.530;2023-05-07T13:03:37;101643.94;;;23.02;55.73